createdAt,value
2022-11-03T00:00:24.945Z,7.60
2022-11-03T00:03:46.351Z,6.47
2022-11-03T00:07:08.137Z,6.00
2022-11-03T00:10:31.251Z,6.43
2022-11-03T00:13:52.987Z,5.47
2022-11-03T00:17:14.664Z,5.13
2022-11-03T00:20:35.891Z,5.67
2022-11-03T00:23:58.133Z,4.87
2022-11-03T00:27:21.290Z,5.13
2022-11-03T00:30:42.576Z,5.17
2022-11-03T00:34:04.433Z,5.00
2022-11-03T00:37:25.695Z,4.97
2022-11-03T00:40:47.081Z,4.73
2022-11-03T00:44:13.318Z,4.50
2022-11-03T00:47:34.903Z,3.93
2022-11-03T00:50:56.423Z,4.20
2022-11-03T00:54:17.889Z,4.20
2022-11-03T00:57:39.633Z,3.63
2022-11-03T01:01:04.364Z,4.50
2022-11-03T01:04:43.679Z,4.30
2022-11-03T01:08:05.483Z,4.13
2022-11-03T01:11:44.891Z,3.27
2022-11-03T01:15:06.821Z,3.33
2022-11-03T01:18:29.805Z,3.87
2022-11-03T01:21:51.270Z,3.50
2022-11-03T01:25:12.618Z,3.70
2022-11-03T01:28:35.064Z,3.30
2022-11-03T01:31:56.573Z,4.03
2022-11-03T01:35:19.228Z,4.03
2022-11-03T01:38:41.211Z,6.00
2022-11-03T01:42:02.972Z,9.10
2022-11-03T01:45:24.378Z,9.20
2022-11-03T01:48:49.990Z,6.60
2022-11-03T01:52:17.375Z,6.00
2022-11-03T01:55:40.748Z,5.20
2022-11-03T01:59:02.835Z,6.73
2022-11-03T02:02:24.351Z,5.00
2022-11-03T02:05:47.403Z,4.80
2022-11-03T02:09:11.887Z,6.03
2022-11-03T02:12:33.780Z,5.60
2022-11-03T02:15:59.277Z,5.10
2022-11-03T02:19:33.152Z,5.37
2022-11-03T02:23:21.411Z,5.53
2022-11-03T02:26:49.065Z,5.53
2022-11-03T02:30:11.364Z,5.20
2022-11-03T02:33:41.342Z,4.13
2022-11-03T02:37:09.174Z,3.97
2022-11-03T02:40:35.764Z,4.63
2022-11-03T02:43:59.491Z,3.67
2022-11-03T02:47:22.621Z,3.00
2022-11-03T02:50:44.561Z,3.57
2022-11-03T02:54:12.859Z,3.57
2022-11-03T02:57:37.413Z,3.60
2022-11-03T03:01:04.906Z,3.40
2022-11-03T03:04:29.279Z,3.53
2022-11-03T03:07:57.280Z,3.83
2022-11-03T03:11:37.459Z,4.30
2022-11-03T03:15:02.504Z,3.60
2022-11-03T03:18:30.371Z,4.13
2022-11-03T03:21:54.921Z,4.70
2022-11-03T03:25:22.952Z,4.30
2022-11-03T03:28:48.861Z,4.37
2022-11-03T03:32:11.749Z,4.87
2022-11-03T03:35:37.436Z,4.77
2022-11-03T03:39:03.316Z,4.90
2022-11-03T03:42:28.462Z,4.77
2022-11-03T03:45:53.025Z,4.33
2022-11-03T03:49:15.081Z,4.37
2022-11-03T03:52:38.621Z,4.90
2022-11-03T03:56:00.562Z,5.03
2022-11-03T03:59:21.843Z,4.57
2022-11-03T04:02:46.440Z,4.73
2022-11-03T04:06:07.731Z,5.57
2022-11-03T04:09:30.317Z,5.57
2022-11-03T04:13:10.009Z,5.40
2022-11-03T04:16:45.378Z,5.40
2022-11-03T04:20:30.866Z,6.00
2022-11-03T04:23:52.580Z,5.50
2022-11-03T04:27:28.890Z,5.77
2022-11-03T04:30:53.374Z,5.37
2022-11-03T04:34:17.709Z,5.13
2022-11-03T04:37:42.501Z,5.00
2022-11-03T04:41:15.781Z,5.17
2022-11-03T04:44:38.588Z,5.30
2022-11-03T04:48:02.970Z,5.60
2022-11-03T04:51:27.713Z,4.67
2022-11-03T04:54:54.378Z,5.10
2022-11-03T04:58:21.340Z,5.60
2022-11-03T05:01:46.229Z,5.23
2022-11-03T05:05:17.831Z,4.63
2022-11-03T05:08:39.524Z,5.90
2022-11-03T05:12:01.009Z,5.40
2022-11-03T05:15:32.618Z,5.23
2022-11-03T05:18:55.667Z,5.37
2022-11-03T05:22:20.919Z,5.33
2022-11-03T05:25:44.592Z,5.97
2022-11-03T05:29:14.503Z,6.20
2022-11-03T05:32:36.443Z,5.53
2022-11-03T05:36:03.263Z,5.40
2022-11-03T05:39:31.014Z,5.87
2022-11-03T05:42:55.310Z,5.10
2022-11-03T05:46:16.726Z,6.00
2022-11-03T05:49:37.993Z,5.20
2022-11-03T05:53:20.437Z,5.23
2022-11-03T05:56:41.961Z,5.43
2022-11-03T06:00:07.034Z,5.37
2022-11-03T06:03:37.099Z,5.17
2022-11-03T06:07:03.103Z,4.63
2022-11-03T06:10:32.228Z,5.80
2022-11-03T06:13:53.980Z,5.17
2022-11-03T06:17:24.542Z,6.33
2022-11-03T06:20:50.688Z,5.40
2022-11-03T06:24:15.174Z,5.00
2022-11-03T06:27:38.421Z,5.60
2022-11-03T06:31:00.498Z,5.03
2022-11-03T06:34:47.121Z,5.27
2022-11-03T06:38:17.155Z,5.70
2022-11-03T06:41:40.911Z,5.10
2022-11-03T06:45:20.324Z,5.40
2022-11-03T06:48:46.657Z,5.40
2022-11-03T06:52:23.741Z,5.67
2022-11-03T06:55:55.983Z,5.60
2022-11-03T06:59:26.302Z,5.50
2022-11-03T07:02:57.977Z,5.13
2022-11-03T07:06:30.966Z,5.37
2022-11-03T07:10:01.892Z,5.67
2022-11-03T07:13:31.155Z,6.43
2022-11-03T07:16:56.674Z,6.03
2022-11-03T07:20:22.251Z,6.70
2022-11-03T07:23:46.305Z,8.40
2022-11-03T07:27:22.777Z,7.70
2022-11-03T07:30:44.817Z,6.07
2022-11-03T07:34:15.413Z,6.17
2022-11-03T07:37:38.334Z,5.60
2022-11-03T07:45:40.125Z,7.53
2022-11-03T07:49:09.626Z,6.87
2022-11-03T07:52:31.035Z,6.93
2022-11-03T07:55:58.626Z,5.90
2022-11-03T07:59:30.901Z,6.43
2022-11-03T08:02:58.135Z,5.43
2022-11-03T08:10:31.961Z,9.00
2022-11-03T08:13:59.651Z,10.10
2022-11-03T08:17:21.295Z,11.87
2022-11-03T08:20:43.205Z,9.27
2022-11-03T08:24:05.202Z,6.70
2022-11-03T08:27:28.067Z,6.50
2022-11-03T08:30:51.120Z,6.07
2022-11-03T08:34:18.637Z,5.93
2022-11-03T08:37:45.746Z,6.10
2022-11-03T08:41:07.817Z,6.20
2022-11-03T08:44:35.927Z,6.27
2022-11-03T08:48:08.735Z,6.20
2022-11-03T08:51:43.028Z,6.33
2022-11-03T08:55:12.228Z,6.30
2022-11-03T08:59:14.183Z,7.37
2022-11-03T09:03:14.270Z,7.10
2022-11-03T09:06:37.697Z,5.80
2022-11-03T09:10:42.268Z,4.77
2022-11-03T09:14:57.045Z,5.20
2022-11-03T09:19:12.990Z,5.90
2022-11-03T10:29:06.069Z,2.10
2022-11-03T10:36:32.962Z,2.25
2022-11-03T10:44:46.729Z,2.08
2022-11-03T10:49:02.320Z,2.10
2022-11-03T11:01:35.376Z,2.28
2022-11-03T11:09:41.059Z,3.25
2022-11-03T11:13:41.887Z,1.98
2022-11-03T11:17:31.244Z,1.92
2022-11-03T11:21:36.519Z,2.00
2022-11-03T11:25:54.221Z,1.83
2022-11-03T11:39:13.255Z,2.13
2022-11-03T11:44:03.884Z,1.85
2022-11-03T11:48:34.976Z,2.20
2022-11-03T11:53:26.129Z,1.98
2022-11-03T11:57:52.029Z,2.42
2022-11-03T12:01:44.283Z,2.50
2022-11-03T12:06:11.428Z,2.38
2022-11-03T12:09:42.529Z,2.10
2022-11-03T12:13:43.960Z,2.47
2022-11-03T12:17:50.799Z,1.92
2022-11-03T12:22:24.347Z,1.67
2022-11-03T12:27:07.338Z,2.10
2022-11-03T12:30:40.165Z,2.25
2022-11-03T12:38:18.793Z,2.78
2022-11-03T12:47:51.857Z,3.35
2022-11-03T12:57:29.285Z,2.50
2022-11-03T13:12:32.140Z,2.88
2022-11-03T14:04:49.800Z,3.28
2022-11-03T14:09:23.047Z,3.33
2022-11-03T14:18:37.563Z,4.25
2022-11-03T14:22:59.034Z,4.18
2022-11-03T14:27:14.290Z,4.53
2022-11-03T14:45:38.438Z,6.43
2022-11-03T14:55:15.806Z,3.72
2022-11-03T15:12:12.515Z,9.15
2022-11-03T15:16:43.951Z,19.92
2022-11-03T15:20:39.966Z,14.18
2022-11-03T15:27:50.469Z,6.07
2022-11-03T15:31:19.807Z,4.47
2022-11-03T15:35:36.572Z,4.50
2022-11-03T15:39:10.765Z,4.30
2022-11-03T15:53:01.711Z,4.57
2022-11-03T15:57:33.924Z,4.82
2022-11-03T16:01:23.900Z,4.82
2022-11-03T16:05:25.142Z,6.07
2022-11-03T16:09:57.174Z,6.40
2022-11-03T16:13:42.264Z,7.60
2022-11-03T16:27:35.233Z,7.72
2022-11-03T16:32:08.606Z,7.07
2022-11-03T16:35:43.049Z,7.45
2022-11-03T16:39:15.252Z,6.70
2022-11-03T16:52:30.449Z,7.60
2022-11-03T16:55:54.177Z,7.80
2022-11-03T16:59:52.992Z,8.23
2022-11-03T17:04:10.897Z,8.13
2022-11-03T17:07:35.527Z,7.43
2022-11-03T17:12:00.445Z,7.90
2022-11-03T17:15:34.990Z,7.22
2022-11-03T17:19:04.175Z,7.28
2022-11-03T17:22:25.849Z,8.10
2022-11-03T17:26:06.057Z,6.72
2022-11-03T17:29:57.978Z,6.30
2022-11-03T17:33:31.467Z,6.70
2022-11-03T17:46:35.134Z,6.28
2022-11-03T18:01:24.170Z,6.53
2022-11-03T18:25:26.819Z,7.07
2022-11-03T18:28:49.279Z,6.93
2022-11-03T18:32:46.666Z,7.07
2022-11-03T18:36:17.053Z,7.28
2022-11-03T18:39:39.431Z,7.00
2022-11-03T18:43:18.381Z,6.32
2022-11-03T18:46:54.551Z,7.43
2022-11-03T18:54:47.758Z,8.05
2022-11-03T18:59:30.544Z,7.78
2022-11-03T19:02:52.373Z,7.47
2022-11-03T19:06:14.305Z,6.90
2022-11-03T19:09:36.110Z,6.97
2022-11-03T19:13:18.431Z,7.53
2022-11-03T19:17:21.333Z,6.97
2022-11-03T19:21:04.751Z,6.65
2022-11-03T19:24:30.537Z,5.90
2022-11-03T19:27:55.273Z,6.25
2022-11-03T19:31:48.749Z,6.38
2022-11-03T19:35:36.071Z,6.30
2022-11-03T19:39:23.433Z,7.20
2022-11-03T19:44:07.967Z,6.38
2022-11-03T19:48:24.064Z,6.07
2022-11-03T19:51:48.250Z,6.30
2022-11-03T19:55:19.086Z,6.60
2022-11-03T20:07:33.749Z,7.05
2022-11-03T20:15:37.946Z,6.43
2022-11-03T20:19:01.518Z,6.45
2022-11-03T20:22:31.140Z,6.50
2022-11-03T20:26:04.560Z,6.87
2022-11-03T20:29:29.560Z,6.53
2022-11-03T20:33:08.735Z,6.67
2022-11-03T20:37:08.615Z,6.87
2022-11-03T20:40:44.090Z,7.28
2022-11-03T20:45:09.698Z,7.13
2022-11-03T20:49:10.317Z,7.05
2022-11-03T20:52:33.443Z,6.67
2022-11-03T20:56:31.032Z,6.88
2022-11-03T21:00:07.526Z,8.17
2022-11-03T21:04:04.758Z,7.10
2022-11-03T21:08:09.032Z,6.63
2022-11-03T21:11:43.355Z,6.67
2022-11-03T21:15:32.106Z,6.93
2022-11-03T21:19:16.969Z,6.73
2022-11-03T21:22:52.441Z,7.10
2022-11-03T21:26:16.799Z,7.13
2022-11-03T21:30:18.633Z,7.10
2022-11-03T21:38:43.012Z,7.10
2022-11-03T21:42:30.213Z,6.90
2022-11-03T21:45:53.203Z,7.83
2022-11-03T21:49:32.992Z,7.37
2022-11-03T21:52:54.566Z,7.37
2022-11-03T21:56:19.959Z,8.10
2022-11-03T21:59:48.954Z,7.23
2022-11-03T22:03:11.980Z,7.83
2022-11-03T22:06:44.367Z,7.30
2022-11-03T22:10:14.870Z,6.77
2022-11-03T22:13:43.685Z,7.80
2022-11-03T22:17:12.355Z,7.90
2022-11-03T22:20:54.767Z,8.37
2022-11-03T22:24:32.920Z,7.40
2022-11-03T22:27:56.748Z,8.03
2022-11-03T22:31:35.530Z,8.80
2022-11-03T22:35:14.147Z,9.63
2022-11-03T22:38:54.193Z,8.90
2022-11-03T22:42:33.343Z,10.63
2022-11-03T22:45:55.864Z,11.33
2022-11-03T22:49:17.061Z,9.37
2022-11-03T22:52:38.152Z,8.67
2022-11-03T22:56:02.023Z,7.63
2022-11-03T22:59:23.753Z,8.03
2022-11-03T23:02:44.980Z,8.53
2022-11-03T23:06:08.589Z,8.30
2022-11-03T23:09:30.420Z,8.03
2022-11-03T23:12:53.360Z,7.03
2022-11-03T23:16:17.009Z,8.27
2022-11-03T23:19:55.982Z,7.40
2022-11-03T23:23:31.370Z,7.70
2022-11-03T23:26:53.198Z,7.30
2022-11-03T23:30:16.093Z,7.37
2022-11-03T23:33:37.525Z,8.17
2022-11-03T23:36:59.621Z,8.37
2022-11-03T23:40:21.592Z,7.83
2022-11-03T23:43:43.238Z,8.30
2022-11-03T23:47:23.498Z,8.60
2022-11-03T23:50:45.098Z,8.20
2022-11-03T23:54:08.693Z,8.00
2022-11-03T23:57:47.792Z,8.80
